sensor_id;sensor_type;location;lat;lon;timestamp;P1;durP1;ratioP1;P2;durP2;ratioP2
48629;SDS011;34426;52.180;4.462;2023-01-31T00:00:44;40.60;;;5.88;;
48629;SDS011;34426;52.180;4.462;2023-01-31T00:03:09;46.17;;;5.05;;
48629;SDS011;34426;52.180;4.462;2023-01-31T00:05:35;51.83;;;5.45;;
48629;SDS011;34426;52.180;4.462;2023-01-31T00:08:00;35.90;;;5.55;;
48629;SDS011;34426;52.180;4.462;2023-01-31T00:10:26;39.53;;;5.22;;
48629;SDS011;34426;52.180;4.462;2023-01-31T00:12:51;41.63;;;4.90;;
48629;SDS011;34426;52.180;4.462;2023-01-31T00:15:18;46.97;;;5.97;;
48629;SDS011;34426;52.180;4.462;2023-01-31T00:17:43;42.17;;;5.60;;
48629;SDS011;34426;52.180;4.462;2023-01-31T00:20:10;41.30;;;4.72;;
48629;SDS011;34426;52.180;4.462;2023-01-31T00:22:36;37.60;;;5.07;;
48629;SDS011;34426;52.180;4.462;2023-01-31T00:25:02;37.40;;;5.63;;
48629;SDS011;34426;52.180;4.462;2023-01-31T00:27:28;44.58;;;5.45;;
48629;SDS011;34426;52.180;4.462;2023-01-31T00:29:53;37.10;;;4.82;;
48629;SDS011;34426;52.180;4.462;2023-01-31T00:32:20;38.97;;;5.20;;
48629;SDS011;34426;52.180;4.462;2023-01-31T00:34:45;38.92;;;4.78;;
48629;SDS011;34426;52.180;4.462;2023-01-31T00:37:11;33.25;;;4.43;;
48629;SDS011;34426;52.180;4.462;2023-01-31T00:39:36;34.05;;;4.35;;
48629;SDS011;34426;52.180;4.462;2023-01-31T00:42:02;32.85;;;5.30;;
48629;SDS011;34426;52.180;4.462;2023-01-31T00:44:27;51.30;;;5.60;;
48629;SDS011;34426;52.180;4.462;2023-01-31T00:46:53;39.20;;;5.93;;
48629;SDS011;34426;52.180;4.462;2023-01-31T00:49:20;31.90;;;4.50;;
48629;SDS011;34426;52.180;4.462;2023-01-31T00:51:45;39.17;;;4.75;;
48629;SDS011;34426;52.180;4.462;2023-01-31T00:54:11;34.92;;;3.97;;
48629;SDS011;34426;52.180;4.462;2023-01-31T00:56:36;32.85;;;4.45;;
48629;SDS011;34426;52.180;4.462;2023-01-31T00:59:02;36.67;;;5.65;;
48629;SDS011;34426;52.180;4.462;2023-01-31T01:01:28;42.50;;;5.70;;
48629;SDS011;34426;52.180;4.462;2023-01-31T01:03:54;42.38;;;5.70;;
48629;SDS011;34426;52.180;4.462;2023-01-31T01:06:22;44.33;;;6.70;;
48629;SDS011;34426;52.180;4.462;2023-01-31T01:08:47;45.45;;;7.22;;
48629;SDS011;34426;52.180;4.462;2023-01-31T01:11:13;60.38;;;7.25;;
48629;SDS011;34426;52.180;4.462;2023-01-31T01:13:41;51.00;;;7.32;;
48629;SDS011;34426;52.180;4.462;2023-01-31T01:16:08;58.85;;;7.80;;
48629;SDS011;34426;52.180;4.462;2023-01-31T01:18:35;59.67;;;7.10;;
48629;SDS011;34426;52.180;4.462;2023-01-31T01:21:05;43.85;;;6.38;;
48629;SDS011;34426;52.180;4.462;2023-01-31T01:23:33;58.40;;;7.47;;
48629;SDS011;34426;52.180;4.462;2023-01-31T01:25:58;53.83;;;7.25;;
48629;SDS011;34426;52.180;4.462;2023-01-31T01:28:24;64.50;;;7.25;;
48629;SDS011;34426;52.180;4.462;2023-01-31T01:30:49;53.65;;;7.10;;
48629;SDS011;34426;52.180;4.462;2023-01-31T01:33:14;54.88;;;7.53;;
48629;SDS011;34426;52.180;4.462;2023-01-31T01:35:40;51.08;;;8.18;;
48629;SDS011;34426;52.180;4.462;2023-01-31T01:38:05;60.50;;;7.78;;
48629;SDS011;34426;52.180;4.462;2023-01-31T01:40:36;54.10;;;8.15;;
48629;SDS011;34426;52.180;4.462;2023-01-31T01:43:02;58.45;;;6.20;;
48629;SDS011;34426;52.180;4.462;2023-01-31T01:45:28;56.22;;;8.15;;
48629;SDS011;34426;52.180;4.462;2023-01-31T01:47:54;62.35;;;9.23;;
48629;SDS011;34426;52.180;4.462;2023-01-31T01:50:24;65.90;;;8.45;;
48629;SDS011;34426;52.180;4.462;2023-01-31T01:52:55;46.75;;;7.18;;
48629;SDS011;34426;52.180;4.462;2023-01-31T01:55:25;67.90;;;8.50;;
48629;SDS011;34426;52.180;4.462;2023-01-31T01:57:57;54.03;;;7.65;;
48629;SDS011;34426;52.180;4.462;2023-01-31T02:00:29;60.78;;;7.80;;
48629;SDS011;34426;52.180;4.462;2023-01-31T02:02:55;51.63;;;6.88;;
48629;SDS011;34426;52.180;4.462;2023-01-31T02:05:25;60.97;;;8.60;;
48629;SDS011;34426;52.180;4.462;2023-01-31T02:07:55;59.17;;;9.20;;
48629;SDS011;34426;52.180;4.462;2023-01-31T02:10:22;56.08;;;10.00;;
48629;SDS011;34426;52.180;4.462;2023-01-31T02:12:50;60.53;;;8.95;;
48629;SDS011;34426;52.180;4.462;2023-01-31T02:15:17;65.53;;;6.55;;
48629;SDS011;34426;52.180;4.462;2023-01-31T02:17:43;58.97;;;9.02;;
48629;SDS011;34426;52.180;4.462;2023-01-31T02:20:17;54.92;;;8.95;;
48629;SDS011;34426;52.180;4.462;2023-01-31T02:22:59;66.90;;;7.45;;
48629;SDS011;34426;52.180;4.462;2023-01-31T02:28:53;66.85;;;9.48;;
48629;SDS011;34426;52.180;4.462;2023-01-31T02:31:38;49.05;;;6.90;;
48629;SDS011;34426;52.180;4.462;2023-01-31T02:34:28;62.33;;;7.68;;
48629;SDS011;34426;52.180;4.462;2023-01-31T02:37:07;51.53;;;7.45;;
48629;SDS011;34426;52.180;4.462;2023-01-31T02:39:47;49.08;;;7.70;;
48629;SDS011;34426;52.180;4.462;2023-01-31T02:42:22;49.25;;;8.40;;
48629;SDS011;34426;52.180;4.462;2023-01-31T02:44:54;45.33;;;6.68;;
48629;SDS011;34426;52.180;4.462;2023-01-31T02:47:30;49.50;;;7.75;;
48629;SDS011;34426;52.180;4.462;2023-01-31T02:50:10;57.50;;;8.43;;
48629;SDS011;34426;52.180;4.462;2023-01-31T02:52:40;63.50;;;7.93;;
48629;SDS011;34426;52.180;4.462;2023-01-31T02:57:38;64.78;;;8.40;;
48629;SDS011;34426;52.180;4.462;2023-01-31T03:00:07;57.50;;;8.45;;
48629;SDS011;34426;52.180;4.462;2023-01-31T03:02:34;61.08;;;8.43;;
48629;SDS011;34426;52.180;4.462;2023-01-31T03:04:59;55.83;;;8.45;;
48629;SDS011;34426;52.180;4.462;2023-01-31T03:07:26;74.82;;;8.68;;
48629;SDS011;34426;52.180;4.462;2023-01-31T03:09:58;70.93;;;8.35;;
48629;SDS011;34426;52.180;4.462;2023-01-31T03:12:46;73.47;;;8.32;;
48629;SDS011;34426;52.180;4.462;2023-01-31T03:15:19;50.38;;;8.27;;
48629;SDS011;34426;52.180;4.462;2023-01-31T03:17:57;58.33;;;7.80;;
48629;SDS011;34426;52.180;4.462;2023-01-31T03:20:27;65.15;;;9.63;;
48629;SDS011;34426;52.180;4.462;2023-01-31T03:22:58;59.22;;;9.02;;
48629;SDS011;34426;52.180;4.462;2023-01-31T03:25:26;66.10;;;10.23;;
48629;SDS011;34426;52.180;4.462;2023-01-31T03:27:55;60.95;;;9.38;;
48629;SDS011;34426;52.180;4.462;2023-01-31T03:30:25;53.40;;;9.00;;
48629;SDS011;34426;52.180;4.462;2023-01-31T03:32:56;59.63;;;8.82;;
48629;SDS011;34426;52.180;4.462;2023-01-31T03:35:26;62.60;;;8.65;;
48629;SDS011;34426;52.180;4.462;2023-01-31T03:37:56;55.75;;;8.43;;
48629;SDS011;34426;52.180;4.462;2023-01-31T03:40:29;76.72;;;9.95;;
48629;SDS011;34426;52.180;4.462;2023-01-31T03:42:59;70.32;;;8.52;;
48629;SDS011;34426;52.180;4.462;2023-01-31T03:45:30;57.63;;;9.20;;
48629;SDS011;34426;52.180;4.462;2023-01-31T03:47:58;55.38;;;8.95;;
48629;SDS011;34426;52.180;4.462;2023-01-31T03:50:27;61.83;;;9.23;;
48629;SDS011;34426;52.180;4.462;2023-01-31T03:52:55;50.85;;;8.40;;
48629;SDS011;34426;52.180;4.462;2023-01-31T03:55:29;73.82;;;10.02;;
48629;SDS011;34426;52.180;4.462;2023-01-31T03:57:58;49.42;;;7.35;;
48629;SDS011;34426;52.180;4.462;2023-01-31T04:00:27;60.30;;;8.27;;
48629;SDS011;34426;52.180;4.462;2023-01-31T04:02:54;53.60;;;7.68;;
48629;SDS011;34426;52.180;4.462;2023-01-31T04:05:24;54.78;;;8.10;;
48629;SDS011;34426;52.180;4.462;2023-01-31T04:07:51;58.75;;;8.85;;
48629;SDS011;34426;52.180;4.462;2023-01-31T04:10:17;53.25;;;6.95;;
48629;SDS011;34426;52.180;4.462;2023-01-31T04:12:45;57.00;;;7.45;;
48629;SDS011;34426;52.180;4.462;2023-01-31T04:15:11;58.05;;;8.23;;
48629;SDS011;34426;52.180;4.462;2023-01-31T04:17:37;52.00;;;7.63;;
48629;SDS011;34426;52.180;4.462;2023-01-31T04:20:03;41.80;;;6.85;;
48629;SDS011;34426;52.180;4.462;2023-01-31T04:22:29;50.97;;;7.35;;
48629;SDS011;34426;52.180;4.462;2023-01-31T04:24:55;44.80;;;5.95;;
48629;SDS011;34426;52.180;4.462;2023-01-31T04:27:20;41.90;;;5.90;;
48629;SDS011;34426;52.180;4.462;2023-01-31T04:29:47;50.25;;;7.38;;
48629;SDS011;34426;52.180;4.462;2023-01-31T04:32:12;35.80;;;6.28;;
48629;SDS011;34426;52.180;4.462;2023-01-31T04:34:38;38.70;;;5.68;;
48629;SDS011;34426;52.180;4.462;2023-01-31T04:37:03;43.90;;;6.65;;
48629;SDS011;34426;52.180;4.462;2023-01-31T04:39:29;41.78;;;5.28;;
48629;SDS011;34426;52.180;4.462;2023-01-31T04:41:54;28.95;;;4.63;;
48629;SDS011;34426;52.180;4.462;2023-01-31T04:44:20;37.33;;;5.45;;
48629;SDS011;34426;52.180;4.462;2023-01-31T04:46:47;52.50;;;7.78;;
48629;SDS011;34426;52.180;4.462;2023-01-31T04:49:12;34.10;;;5.07;;
48629;SDS011;34426;52.180;4.462;2023-01-31T04:51:38;54.47;;;6.80;;
48629;SDS011;34426;52.180;4.462;2023-01-31T04:54:03;40.47;;;5.95;;
48629;SDS011;34426;52.180;4.462;2023-01-31T04:56:29;34.95;;;5.93;;
48629;SDS011;34426;52.180;4.462;2023-01-31T04:58:55;33.72;;;7.80;;
48629;SDS011;34426;52.180;4.462;2023-01-31T05:01:20;42.72;;;6.47;;
48629;SDS011;34426;52.180;4.462;2023-01-31T05:03:47;47.08;;;6.70;;
48629;SDS011;34426;52.180;4.462;2023-01-31T05:06:12;44.22;;;7.72;;
48629;SDS011;34426;52.180;4.462;2023-01-31T05:08:38;53.92;;;7.15;;
48629;SDS011;34426;52.180;4.462;2023-01-31T05:11:03;38.72;;;6.35;;
48629;SDS011;34426;52.180;4.462;2023-01-31T05:13:29;42.53;;;6.55;;
48629;SDS011;34426;52.180;4.462;2023-01-31T05:15:55;40.85;;;5.78;;
48629;SDS011;34426;52.180;4.462;2023-01-31T05:18:20;43.65;;;6.68;;
48629;SDS011;34426;52.180;4.462;2023-01-31T05:20:47;51.85;;;7.03;;
48629;SDS011;34426;52.180;4.462;2023-01-31T05:23:13;47.78;;;6.43;;
48629;SDS011;34426;52.180;4.462;2023-01-31T05:25:38;37.92;;;5.25;;
48629;SDS011;34426;52.180;4.462;2023-01-31T05:28:04;41.35;;;6.47;;
48629;SDS011;34426;52.180;4.462;2023-01-31T05:30:29;43.70;;;6.78;;
48629;SDS011;34426;52.180;4.462;2023-01-31T05:32:55;52.47;;;7.38;;
48629;SDS011;34426;52.180;4.462;2023-01-31T05:35:20;39.55;;;6.90;;
48629;SDS011;34426;52.180;4.462;2023-01-31T05:37:47;35.05;;;6.13;;
48629;SDS011;34426;52.180;4.462;2023-01-31T05:40:13;47.80;;;6.90;;
48629;SDS011;34426;52.180;4.462;2023-01-31T05:42:42;46.83;;;9.00;;
48629;SDS011;34426;52.180;4.462;2023-01-31T05:45:08;54.65;;;7.18;;
48629;SDS011;34426;52.180;4.462;2023-01-31T05:47:35;50.10;;;6.72;;
48629;SDS011;34426;52.180;4.462;2023-01-31T05:50:01;44.10;;;5.45;;
48629;SDS011;34426;52.180;4.462;2023-01-31T05:52:26;46.40;;;6.75;;
48629;SDS011;34426;52.180;4.462;2023-01-31T05:54:53;48.25;;;7.00;;
48629;SDS011;34426;52.180;4.462;2023-01-31T05:57:19;42.08;;;6.78;;
48629;SDS011;34426;52.180;4.462;2023-01-31T05:59:45;47.63;;;6.82;;
48629;SDS011;34426;52.180;4.462;2023-01-31T06:02:10;43.42;;;5.68;;
48629;SDS011;34426;52.180;4.462;2023-01-31T06:04:35;44.45;;;6.18;;
48629;SDS011;34426;52.180;4.462;2023-01-31T06:07:01;47.33;;;7.45;;
48629;SDS011;34426;52.180;4.462;2023-01-31T06:09:27;41.45;;;6.22;;
48629;SDS011;34426;52.180;4.462;2023-01-31T06:11:54;51.72;;;8.80;;
48629;SDS011;34426;52.180;4.462;2023-01-31T06:14:19;44.50;;;6.20;;
48629;SDS011;34426;52.180;4.462;2023-01-31T06:16:45;49.75;;;6.93;;
48629;SDS011;34426;52.180;4.462;2023-01-31T06:19:10;43.08;;;5.30;;
48629;SDS011;34426;52.180;4.462;2023-01-31T06:21:36;32.55;;;5.93;;
48629;SDS011;34426;52.180;4.462;2023-01-31T06:24:01;56.50;;;6.80;;
48629;SDS011;34426;52.180;4.462;2023-01-31T06:26:27;36.80;;;6.22;;
48629;SDS011;34426;52.180;4.462;2023-01-31T06:28:54;39.65;;;6.93;;
48629;SDS011;34426;52.180;4.462;2023-01-31T06:31:19;34.47;;;5.82;;
48629;SDS011;34426;52.180;4.462;2023-01-31T06:33:45;40.13;;;5.35;;
48629;SDS011;34426;52.180;4.462;2023-01-31T06:36:10;34.97;;;5.72;;
48629;SDS011;34426;52.180;4.462;2023-01-31T06:38:36;34.17;;;5.20;;
48629;SDS011;34426;52.180;4.462;2023-01-31T06:41:01;29.27;;;4.80;;
48629;SDS011;34426;52.180;4.462;2023-01-31T06:43:27;37.53;;;5.05;;
48629;SDS011;34426;52.180;4.462;2023-01-31T06:45:53;39.90;;;6.60;;
48629;SDS011;34426;52.180;4.462;2023-01-31T06:48:19;41.03;;;5.60;;
48629;SDS011;34426;52.180;4.462;2023-01-31T06:50:44;50.60;;;6.45;;
48629;SDS011;34426;52.180;4.462;2023-01-31T06:53:10;41.92;;;5.57;;
48629;SDS011;34426;52.180;4.462;2023-01-31T06:55:36;50.80;;;7.40;;
48629;SDS011;34426;52.180;4.462;2023-01-31T06:58:02;36.00;;;4.93;;
48629;SDS011;34426;52.180;4.462;2023-01-31T07:00:27;41.67;;;6.07;;
48629;SDS011;34426;52.180;4.462;2023-01-31T07:02:54;37.67;;;5.50;;
48629;SDS011;34426;52.180;4.462;2023-01-31T07:05:20;50.92;;;7.13;;
48629;SDS011;34426;52.180;4.462;2023-01-31T07:07:45;47.40;;;6.32;;
48629;SDS011;34426;52.180;4.462;2023-01-31T07:10:11;37.00;;;5.75;;
48629;SDS011;34426;52.180;4.462;2023-01-31T07:12:37;30.92;;;5.30;;
48629;SDS011;34426;52.180;4.462;2023-01-31T07:15:03;41.20;;;5.00;;
48629;SDS011;34426;52.180;4.462;2023-01-31T07:17:29;35.95;;;4.85;;
48629;SDS011;34426;52.180;4.462;2023-01-31T07:19:56;38.30;;;4.97;;
48629;SDS011;34426;52.180;4.462;2023-01-31T07:22:21;25.25;;;4.80;;
48629;SDS011;34426;52.180;4.462;2023-01-31T07:24:47;42.38;;;5.18;;
48629;SDS011;34426;52.180;4.462;2023-01-31T07:27:13;23.60;;;4.30;;
48629;SDS011;34426;52.180;4.462;2023-01-31T07:29:39;36.22;;;6.53;;
48629;SDS011;34426;52.180;4.462;2023-01-31T07:32:04;42.58;;;6.60;;
48629;SDS011;34426;52.180;4.462;2023-01-31T07:34:30;38.85;;;5.90;;
48629;SDS011;34426;52.180;4.462;2023-01-31T07:36:56;47.97;;;5.90;;
48629;SDS011;34426;52.180;4.462;2023-01-31T07:39:22;42.30;;;5.18;;
48629;SDS011;34426;52.180;4.462;2023-01-31T07:41:48;42.00;;;6.70;;
48629;SDS011;34426;52.180;4.462;2023-01-31T07:44:13;50.15;;;5.15;;
48629;SDS011;34426;52.180;4.462;2023-01-31T07:46:39;37.03;;;5.53;;
48629;SDS011;34426;52.180;4.462;2023-01-31T07:49:05;27.73;;;4.40;;
48629;SDS011;34426;52.180;4.462;2023-01-31T07:51:30;34.53;;;4.60;;
48629;SDS011;34426;52.180;4.462;2023-01-31T07:53:57;47.47;;;6.45;;
48629;SDS011;34426;52.180;4.462;2023-01-31T07:56:23;36.80;;;5.93;;
48629;SDS011;34426;52.180;4.462;2023-01-31T07:58:48;45.78;;;5.63;;
48629;SDS011;34426;52.180;4.462;2023-01-31T08:01:15;32.65;;;5.35;;
48629;SDS011;34426;52.180;4.462;2023-01-31T08:03:42;42.05;;;6.05;;
48629;SDS011;34426;52.180;4.462;2023-01-31T08:06:08;41.67;;;5.55;;
48629;SDS011;34426;52.180;4.462;2023-01-31T08:08:35;43.63;;;6.53;;
48629;SDS011;34426;52.180;4.462;2023-01-31T08:11:03;40.08;;;6.15;;
48629;SDS011;34426;52.180;4.462;2023-01-31T08:13:29;40.55;;;5.85;;
48629;SDS011;34426;52.180;4.462;2023-01-31T08:15:54;40.50;;;6.10;;
48629;SDS011;34426;52.180;4.462;2023-01-31T08:18:20;46.08;;;7.07;;
48629;SDS011;34426;52.180;4.462;2023-01-31T08:20:45;39.70;;;5.30;;
48629;SDS011;34426;52.180;4.462;2023-01-31T08:23:11;35.35;;;5.30;;
48629;SDS011;34426;52.180;4.462;2023-01-31T08:25:36;49.63;;;5.65;;
48629;SDS011;34426;52.180;4.462;2023-01-31T08:28:03;45.17;;;6.28;;
48629;SDS011;34426;52.180;4.462;2023-01-31T08:30:29;52.08;;;6.32;;
48629;SDS011;34426;52.180;4.462;2023-01-31T08:32:54;41.78;;;5.90;;
48629;SDS011;34426;52.180;4.462;2023-01-31T08:35:21;56.83;;;6.60;;
48629;SDS011;34426;52.180;4.462;2023-01-31T08:37:49;55.20;;;6.40;;
48629;SDS011;34426;52.180;4.462;2023-01-31T08:40:14;44.20;;;6.03;;
48629;SDS011;34426;52.180;4.462;2023-01-31T08:42:40;58.75;;;6.35;;
48629;SDS011;34426;52.180;4.462;2023-01-31T08:45:07;41.38;;;6.45;;
48629;SDS011;34426;52.180;4.462;2023-01-31T08:47:33;47.03;;;6.30;;
48629;SDS011;34426;52.180;4.462;2023-01-31T08:49:59;51.33;;;7.03;;
48629;SDS011;34426;52.180;4.462;2023-01-31T08:52:24;49.13;;;7.47;;
48629;SDS011;34426;52.180;4.462;2023-01-31T08:54:49;39.42;;;5.00;;
48629;SDS011;34426;52.180;4.462;2023-01-31T08:57:15;44.80;;;5.85;;
48629;SDS011;34426;52.180;4.462;2023-01-31T08:59:41;43.55;;;5.65;;
48629;SDS011;34426;52.180;4.462;2023-01-31T09:02:09;42.17;;;6.28;;
48629;SDS011;34426;52.180;4.462;2023-01-31T09:04:35;46.83;;;7.15;;
48629;SDS011;34426;52.180;4.462;2023-01-31T09:07:00;59.30;;;5.72;;
48629;SDS011;34426;52.180;4.462;2023-01-31T09:09:26;58.25;;;6.65;;
48629;SDS011;34426;52.180;4.462;2023-01-31T09:11:51;40.75;;;5.65;;
48629;SDS011;34426;52.180;4.462;2023-01-31T09:14:17;52.47;;;7.10;;
48629;SDS011;34426;52.180;4.462;2023-01-31T09:16:42;46.83;;;6.90;;
48629;SDS011;34426;52.180;4.462;2023-01-31T09:19:09;41.78;;;6.05;;
48629;SDS011;34426;52.180;4.462;2023-01-31T09:21:34;45.83;;;6.13;;
48629;SDS011;34426;52.180;4.462;2023-01-31T09:24:00;42.28;;;5.55;;
48629;SDS011;34426;52.180;4.462;2023-01-31T09:26:25;42.72;;;5.82;;
48629;SDS011;34426;52.180;4.462;2023-01-31T09:28:51;48.15;;;6.72;;
48629;SDS011;34426;52.180;4.462;2023-01-31T09:31:17;43.10;;;5.95;;
48629;SDS011;34426;52.180;4.462;2023-01-31T09:33:44;48.05;;;6.15;;
48629;SDS011;34426;52.180;4.462;2023-01-31T09:36:12;31.17;;;5.40;;
48629;SDS011;34426;52.180;4.462;2023-01-31T09:38:39;41.63;;;6.28;;
48629;SDS011;34426;52.180;4.462;2023-01-31T09:41:05;50.50;;;7.40;;
48629;SDS011;34426;52.180;4.462;2023-01-31T09:43:38;35.10;;;6.90;;
48629;SDS011;34426;52.180;4.462;2023-01-31T09:46:17;46.42;;;6.88;;
48629;SDS011;34426;52.180;4.462;2023-01-31T09:48:48;42.35;;;5.50;;
48629;SDS011;34426;52.180;4.462;2023-01-31T09:51:18;36.05;;;6.65;;
48629;SDS011;34426;52.180;4.462;2023-01-31T09:53:44;38.13;;;6.63;;
48629;SDS011;34426;52.180;4.462;2023-01-31T09:58:58;44.40;;;6.53;;
48629;SDS011;34426;52.180;4.462;2023-01-31T10:01:31;34.42;;;5.63;;
48629;SDS011;34426;52.180;4.462;2023-01-31T10:04:06;48.78;;;5.90;;
48629;SDS011;34426;52.180;4.462;2023-01-31T10:06:46;43.28;;;6.93;;
48629;SDS011;34426;52.180;4.462;2023-01-31T10:09:19;39.50;;;6.38;;
48629;SDS011;34426;52.180;4.462;2023-01-31T10:11:51;45.47;;;6.90;;
48629;SDS011;34426;52.180;4.462;2023-01-31T10:14:23;38.40;;;6.75;;
48629;SDS011;34426;52.180;4.462;2023-01-31T10:16:58;54.05;;;7.03;;
48629;SDS011;34426;52.180;4.462;2023-01-31T10:19:31;49.67;;;6.10;;
48629;SDS011;34426;52.180;4.462;2023-01-31T10:22:06;51.17;;;7.30;;
48629;SDS011;34426;52.180;4.462;2023-01-31T10:24:35;44.00;;;6.65;;
48629;SDS011;34426;52.180;4.462;2023-01-31T10:27:06;38.90;;;6.85;;
48629;SDS011;34426;52.180;4.462;2023-01-31T10:29:38;42.25;;;6.22;;
48629;SDS011;34426;52.180;4.462;2023-01-31T10:32:10;52.40;;;7.18;;
48629;SDS011;34426;52.180;4.462;2023-01-31T10:34:42;51.08;;;7.18;;
48629;SDS011;34426;52.180;4.462;2023-01-31T10:37:15;45.97;;;6.30;;
48629;SDS011;34426;52.180;4.462;2023-01-31T10:39:48;48.70;;;6.03;;
48629;SDS011;34426;52.180;4.462;2023-01-31T10:42:19;46.20;;;6.28;;
48629;SDS011;34426;52.180;4.462;2023-01-31T10:44:51;49.80;;;6.63;;
48629;SDS011;34426;52.180;4.462;2023-01-31T10:47:18;36.30;;;5.82;;
48629;SDS011;34426;52.180;4.462;2023-01-31T10:49:46;41.78;;;5.57;;
48629;SDS011;34426;52.180;4.462;2023-01-31T10:52:17;42.85;;;5.72;;
48629;SDS011;34426;52.180;4.462;2023-01-31T10:54:58;42.70;;;5.60;;
48629;SDS011;34426;52.180;4.462;2023-01-31T10:57:34;41.55;;;7.13;;
48629;SDS011;34426;52.180;4.462;2023-01-31T11:00:01;45.20;;;5.65;;
48629;SDS011;34426;52.180;4.462;2023-01-31T11:02:27;40.35;;;6.10;;
48629;SDS011;34426;52.180;4.462;2023-01-31T11:04:54;44.67;;;6.10;;
48629;SDS011;34426;52.180;4.462;2023-01-31T11:07:22;43.72;;;5.10;;
48629;SDS011;34426;52.180;4.462;2023-01-31T11:09:50;37.85;;;5.88;;
48629;SDS011;34426;52.180;4.462;2023-01-31T11:12:17;48.28;;;7.40;;
48629;SDS011;34426;52.180;4.462;2023-01-31T11:14:42;45.97;;;6.28;;
48629;SDS011;34426;52.180;4.462;2023-01-31T11:17:11;45.30;;;6.97;;
48629;SDS011;34426;52.180;4.462;2023-01-31T11:19:42;42.27;;;7.60;;
48629;SDS011;34426;52.180;4.462;2023-01-31T11:22:16;57.72;;;7.50;;
48629;SDS011;34426;52.180;4.462;2023-01-31T11:24:48;51.42;;;6.68;;
48629;SDS011;34426;52.180;4.462;2023-01-31T11:27:24;48.08;;;6.47;;
48629;SDS011;34426;52.180;4.462;2023-01-31T11:29:52;39.20;;;5.70;;
48629;SDS011;34426;52.180;4.462;2023-01-31T11:32:20;46.88;;;6.80;;
48629;SDS011;34426;52.180;4.462;2023-01-31T11:34:56;47.58;;;6.07;;
48629;SDS011;34426;52.180;4.462;2023-01-31T11:37:23;42.75;;;7.05;;
48629;SDS011;34426;52.180;4.462;2023-01-31T11:39:54;45.55;;;6.57;;
48629;SDS011;34426;52.180;4.462;2023-01-31T11:42:21;40.65;;;6.90;;
48629;SDS011;34426;52.180;4.462;2023-01-31T11:44:57;55.95;;;6.90;;
48629;SDS011;34426;52.180;4.462;2023-01-31T11:47:31;51.35;;;6.10;;
48629;SDS011;34426;52.180;4.462;2023-01-31T11:50:02;35.00;;;6.00;;
48629;SDS011;34426;52.180;4.462;2023-01-31T11:52:28;38.13;;;7.03;;
48629;SDS011;34426;52.180;4.462;2023-01-31T11:54:58;44.92;;;8.20;;
48629;SDS011;34426;52.180;4.462;2023-01-31T11:57:27;36.28;;;5.68;;
48629;SDS011;34426;52.180;4.462;2023-01-31T11:59:56;48.67;;;7.20;;
48629;SDS011;34426;52.180;4.462;2023-01-31T12:02:25;57.47;;;8.15;;
48629;SDS011;34426;52.180;4.462;2023-01-31T12:04:56;40.60;;;5.88;;
48629;SDS011;34426;52.180;4.462;2023-01-31T12:07:23;51.38;;;7.70;;
48629;SDS011;34426;52.180;4.462;2023-01-31T12:09:50;48.45;;;8.48;;
48629;SDS011;34426;52.180;4.462;2023-01-31T12:12:26;44.22;;;8.82;;
48629;SDS011;34426;52.180;4.462;2023-01-31T12:14:53;43.00;;;6.57;;
48629;SDS011;34426;52.180;4.462;2023-01-31T12:17:23;35.78;;;6.20;;
48629;SDS011;34426;52.180;4.462;2023-01-31T12:19:51;43.05;;;7.03;;
48629;SDS011;34426;52.180;4.462;2023-01-31T12:22:29;46.67;;;6.10;;
48629;SDS011;34426;52.180;4.462;2023-01-31T12:25:03;53.88;;;7.63;;
48629;SDS011;34426;52.180;4.462;2023-01-31T12:27:42;42.47;;;7.22;;
48629;SDS011;34426;52.180;4.462;2023-01-31T12:30:21;46.33;;;7.40;;
48629;SDS011;34426;52.180;4.462;2023-01-31T12:32:58;44.05;;;6.47;;
48629;SDS011;34426;52.180;4.462;2023-01-31T12:35:40;50.80;;;7.00;;
48629;SDS011;34426;52.180;4.462;2023-01-31T12:38:16;45.13;;;6.70;;
48629;SDS011;34426;52.180;4.462;2023-01-31T12:40:52;44.65;;;7.10;;
48629;SDS011;34426;52.180;4.462;2023-01-31T12:43:29;50.22;;;6.30;;
48629;SDS011;34426;52.180;4.462;2023-01-31T12:46:12;45.97;;;7.07;;
48629;SDS011;34426;52.180;4.462;2023-01-31T12:51:47;43.83;;;6.30;;
48629;SDS011;34426;52.180;4.462;2023-01-31T12:54:26;46.08;;;6.45;;
48629;SDS011;34426;52.180;4.462;2023-01-31T12:57:08;41.50;;;6.20;;
48629;SDS011;34426;52.180;4.462;2023-01-31T12:59:49;43.30;;;6.93;;
48629;SDS011;34426;52.180;4.462;2023-01-31T13:02:30;49.25;;;7.43;;
48629;SDS011;34426;52.180;4.462;2023-01-31T13:05:02;46.80;;;6.07;;
48629;SDS011;34426;52.180;4.462;2023-01-31T13:07:40;47.05;;;7.85;;
48629;SDS011;34426;52.180;4.462;2023-01-31T13:10:14;44.25;;;6.07;;
48629;SDS011;34426;52.180;4.462;2023-01-31T13:12:48;53.55;;;9.32;;
48629;SDS011;34426;52.180;4.462;2023-01-31T13:15:17;48.65;;;6.90;;
48629;SDS011;34426;52.180;4.462;2023-01-31T13:17:51;40.10;;;6.82;;
48629;SDS011;34426;52.180;4.462;2023-01-31T13:20:22;46.08;;;6.95;;
48629;SDS011;34426;52.180;4.462;2023-01-31T13:22:54;50.53;;;6.90;;
48629;SDS011;34426;52.180;4.462;2023-01-31T13:25:23;44.42;;;7.93;;
48629;SDS011;34426;52.180;4.462;2023-01-31T13:28:00;45.33;;;7.47;;
48629;SDS011;34426;52.180;4.462;2023-01-31T13:30:33;53.47;;;6.70;;
48629;SDS011;34426;52.180;4.462;2023-01-31T13:33:04;34.75;;;6.82;;
48629;SDS011;34426;52.180;4.462;2023-01-31T13:35:39;48.63;;;7.65;;
48629;SDS011;34426;52.180;4.462;2023-01-31T13:38:10;48.50;;;7.30;;
48629;SDS011;34426;52.180;4.462;2023-01-31T13:40:41;41.40;;;7.13;;
48629;SDS011;34426;52.180;4.462;2023-01-31T13:43:13;46.92;;;6.70;;
48629;SDS011;34426;52.180;4.462;2023-01-31T13:45:42;42.63;;;6.22;;
48629;SDS011;34426;52.180;4.462;2023-01-31T13:48:15;39.60;;;6.00;;
48629;SDS011;34426;52.180;4.462;2023-01-31T13:50:48;43.97;;;7.32;;
48629;SDS011;34426;52.180;4.462;2023-01-31T13:53:19;35.85;;;5.90;;
48629;SDS011;34426;52.180;4.462;2023-01-31T13:55:47;63.70;;;7.88;;
48629;SDS011;34426;52.180;4.462;2023-01-31T13:58:16;48.58;;;6.22;;
48629;SDS011;34426;52.180;4.462;2023-01-31T14:00:47;47.17;;;6.00;;
48629;SDS011;34426;52.180;4.462;2023-01-31T14:03:19;59.33;;;7.43;;
48629;SDS011;34426;52.180;4.462;2023-01-31T14:05:50;49.42;;;8.60;;
48629;SDS011;34426;52.180;4.462;2023-01-31T14:08:37;55.33;;;9.07;;
48629;SDS011;34426;52.180;4.462;2023-01-31T14:11:34;47.33;;;6.78;;
48629;SDS011;34426;52.180;4.462;2023-01-31T14:14:15;44.03;;;5.60;;
48629;SDS011;34426;52.180;4.462;2023-01-31T14:16:46;43.13;;;6.43;;
48629;SDS011;34426;52.180;4.462;2023-01-31T14:22:22;37.67;;;5.85;;
48629;SDS011;34426;52.180;4.462;2023-01-31T14:27:26;46.15;;;6.65;;
48629;SDS011;34426;52.180;4.462;2023-01-31T14:29:55;34.83;;;5.18;;
48629;SDS011;34426;52.180;4.462;2023-01-31T14:32:27;32.53;;;5.03;;
48629;SDS011;34426;52.180;4.462;2023-01-31T14:34:55;29.33;;;5.30;;
48629;SDS011;34426;52.180;4.462;2023-01-31T14:37:24;30.85;;;5.28;;
48629;SDS011;34426;52.180;4.462;2023-01-31T14:42:57;27.38;;;6.13;;
48629;SDS011;34426;52.180;4.462;2023-01-31T14:45:38;34.72;;;4.95;;
48629;SDS011;34426;52.180;4.462;2023-01-31T14:48:21;41.20;;;4.93;;
48629;SDS011;34426;52.180;4.462;2023-01-31T14:51:00;32.05;;;4.90;;
48629;SDS011;34426;52.180;4.462;2023-01-31T14:53:34;34.15;;;5.40;;
48629;SDS011;34426;52.180;4.462;2023-01-31T14:56:16;30.63;;;4.90;;
48629;SDS011;34426;52.180;4.462;2023-01-31T14:58:49;34.92;;;5.22;;
48629;SDS011;34426;52.180;4.462;2023-01-31T15:01:17;26.20;;;4.75;;
48629;SDS011;34426;52.180;4.462;2023-01-31T15:03:49;37.53;;;5.57;;